Time;durP1;ratioP1;P1;durP2;ratioP2;P2;SDS_P1;SDS_P2;PMS_P1;PMS_P2;Temp;Humidity;BMP_temperature;BMP_pressure;BME280_temperature;BME280_humidity;BME280_pressure;Samples;Min_cycle;Max_cycle;Signal;HPM_P1;HPM_P2
2023/01/20 00:02:03;;;;;;;25.80;13.18;;;;;;;-142.75;100.00;78037.06;5020337;28;20022;-66
2023/01/20 00:04:29;;;;;;;30.85;15.20;;;;;;;-142.75;100.00;78025.25;5020224;28;20399;-66
2023/01/20 00:06:54;;;;;;;31.92;14.05;;;;;;;-142.75;100.00;78029.19;5018940;28;20037;-66
2023/01/20 00:09:19;;;;;;;28.33;13.52;;;;;;;-142.75;100.00;78019.34;5002409;28;20017;-66
2023/01/20 00:11:45;;;;;;;30.98;14.82;;;;;;;-142.75;100.00;78015.41;5019941;28;20083;-66
2023/01/20 00:14:11;;;;;;;33.78;14.48;;;;;;;-142.75;100.00;78023.28;5020066;28;20026;-66
2023/01/20 00:16:36;;;;;;;28.75;14.38;;;;;;;-142.75;100.00;78017.38;5019305;28;20471;-63
2023/01/20 00:19:02;;;;;;;32.40;14.27;;;;;;;-142.75;100.00;78021.31;5019876;28;20037;-66
2023/01/20 00:21:27;;;;;;;30.60;13.70;;;;;;;-142.75;100.00;78011.47;5019622;28;20028;-66
2023/01/20 00:23:53;;;;;;;33.90;14.05;;;;;;;-142.75;100.00;78007.53;5020465;28;20048;-66
2023/01/20 00:26:20;;;;;;;30.60;13.82;;;;;;;-142.75;100.00;78003.59;5019766;28;20013;-66
2023/01/20 00:28:46;;;;;;;25.17;12.43;;;;;;;-142.75;100.00;78001.63;5019473;28;20029;-66
2023/01/20 00:31:14;;;;;;;;;;;;;;;-142.75;100.00;77997.69;5020144;28;20040;-67
2023/01/20 00:33:40;;;;;;;21.97;10.37;;;;;;;-142.75;100.00;77999.66;5019572;28;19924;-66
2023/01/20 00:36:06;;;;;;;26.63;12.55;;;;;;;-142.75;100.00;77991.78;5019455;28;20029;-66
2023/01/20 00:38:31;;;;;;;;;;;;;;;-142.75;100.00;77999.66;5019277;28;20108;-66
2023/01/20 00:40:57;;;;;;;24.57;11.80;;;;;;;-142.75;100.00;78027.22;5020304;28;19912;-64
2023/01/20 00:43:22;;;;;;;26.77;12.88;;;;;;;-142.75;100.00;78007.53;5040051;28;20032;-67
2023/01/20 00:45:47;;;;;;;24.83;12.63;;;;;;;-142.75;100.00;78013.44;5039498;28;20404;-65
2023/01/20 00:48:13;;;;;;;28.90;12.27;;;;;;;-142.75;100.00;78015.41;5038606;28;20910;-65
2023/01/20 00:50:38;;;;;;;25.58;11.73;;;;;;;-142.75;100.00;78011.47;5021642;28;20021;-67
2023/01/20 00:53:03;;;;;;;30.67;12.77;;;;;;;-142.75;100.00;78035.09;5039134;28;20029;-65
2023/01/20 00:55:29;;;;;;;24.85;12.35;;;;;;;-142.75;100.00;78037.06;5039230;28;20021;-65
2023/01/20 00:57:54;;;;;;;25.02;12.30;;;;;;;-142.75;100.00;78035.09;5038890;28;20103;-66
2023/01/20 01:00:20;;;;;;;27.75;12.25;;;;;;;-142.75;100.00;78023.28;5039214;28;20042;-64
2023/01/20 01:02:45;;;;;;;25.75;11.73;;;;;;;-142.75;100.00;78017.38;5038992;28;20016;-65
2023/01/20 01:05:10;;;;;;;24.83;10.70;;;;;;;-142.75;100.00;78031.16;5038934;28;20067;-66
2023/01/20 01:07:36;;;;;;;31.02;12.48;;;;;;;-142.75;100.00;78025.25;5038331;28;20493;-66
2023/01/20 01:10:01;;;;;;;31.10;12.45;;;;;;;-142.75;100.00;78046.91;5036589;28;20029;-66
2023/01/20 01:12:26;;;;;;;25.88;12.77;;;;;;;-142.75;100.00;78068.59;5024833;28;20029;-66
2023/01/20 01:14:52;;;;;;;30.05;12.00;;;;;;;-142.75;100.00;78060.72;5019453;28;20033;-66
2023/01/20 01:17:17;;;;;;;27.35;11.90;;;;;;;-142.75;100.00;78066.63;5027913;28;20037;-66
2023/01/20 01:19:42;;;;;;;27.95;12.48;;;;;;;-142.75;100.00;78062.69;5038827;28;20036;-66
2023/01/20 01:22:08;;;;;;;28.92;12.68;;;;;;;-142.75;100.00;78066.63;5021050;28;20370;-66
2023/01/20 01:24:33;;;;;;;30.90;13.75;;;;;;;-142.75;100.00;78086.31;5017706;28;20516;-66
2023/01/20 01:26:58;;;;;;;28.42;12.98;;;;;;;-142.75;100.00;78086.31;5000492;28;20048;-65
2023/01/20 01:29:24;;;;;;;31.50;13.40;;;;;;;-142.75;100.00;78078.44;5017383;28;20037;-65
2023/01/20 01:31:49;;;;;;;24.98;11.45;;;;;;;-142.75;100.00;78092.22;5019185;28;20025;-65
2023/01/20 01:34:16;;;;;;;28.40;12.73;;;;;;;-142.75;100.00;78090.25;5019224;28;20134;-66
2023/01/20 01:36:42;;;;;;;27.47;12.00;;;;;;;-142.75;100.00;78109.94;5018347;28;20045;-65
2023/01/20 01:39:07;;;;;;;23.73;11.77;;;;;;;-142.75;100.00;78082.38;5000793;28;20057;-66
2023/01/20 01:41:33;;;;;;;27.08;11.25;;;;;;;-142.75;100.00;78092.22;5019008;28;20022;-65
2023/01/20 01:44:04;;;;;;;28.40;12.30;;;;;;;-142.75;100.00;78098.13;5018693;28;20042;-67
2023/01/20 01:46:30;;;;;;;27.83;11.07;;;;;;;-142.75;100.00;78098.13;5018678;28;20076;-64
2023/01/20 01:48:58;;;;;;;29.83;12.65;;;;;;;-142.75;100.00;78106.00;5031530;28;20449;-64
2023/01/20 01:51:33;;;;;;;31.97;12.53;;;;;;;-142.75;100.00;78092.22;5038334;28;20037;-66
2023/01/20 01:54:07;;;;;;;26.20;12.07;;;;;;;-142.75;100.00;78107.97;5038878;28;20555;-66
2023/01/20 01:56:33;;;;;;;25.63;12.47;;;;;;;-142.75;100.00;78090.25;5031528;28;20896;-65
2023/01/20 01:59:01;;;;;;;30.33;12.68;;;;;;;-142.75;100.00;78070.56;5000805;28;20117;-65
2023/01/20 02:01:28;;;;;;;30.87;12.33;;;;;;;-142.75;100.00;78082.38;5018418;28;20441;-66
2023/01/20 02:04:01;;;;;;;24.77;12.27;;;;;;;-142.75;100.00;78094.19;5018960;28;20033;-65
2023/01/20 02:06:32;;;;;;;30.00;12.07;;;;;;;-142.75;100.00;78080.41;5000600;28;20056;-65
2023/01/20 02:09:00;;;;;;;27.63;12.43;;;;;;;-142.75;100.00;78062.69;5000447;28;20041;-64
2023/01/20 02:11:27;;;;;;;26.57;11.70;;;;;;;-142.75;100.00;78086.31;5000622;28;20021;-66
2023/01/20 02:13:53;;;;;;;32.37;12.87;;;;;;;-142.75;100.00;78098.13;5018825;28;20025;-66
2023/01/20 02:16:46;;;;;;;23.73;11.70;;;;;;;-142.75;100.00;78078.44;5018622;28;20737;-64
2023/01/20 02:19:14;;;;;;;24.17;11.87;;;;;;;-142.75;100.00;78072.53;5018492;28;20035;-65
2023/01/20 02:21:54;;;;;;;22.47;11.47;;;;;;;-142.75;100.00;78082.38;5000532;28;20030;-66
2023/01/20 02:24:57;;;;;;;27.63;12.43;;;;;;;-142.75;100.00;78076.47;5021372;28;20036;-67
2023/01/20 02:27:40;;;;;;;26.07;12.90;;;;;;;-142.75;100.00;78070.56;5034588;28;20453;-65
2023/01/20 02:30:23;;;;;;;25.50;11.90;;;;;;;-142.75;100.00;78074.50;5041323;28;20071;-65
2023/01/20 02:33:01;;;;;;;24.73;11.90;;;;;;;-142.75;100.00;78066.63;5042088;28;20767;-65
2023/01/20 02:35:44;;;;;;;24.40;11.77;;;;;;;-142.75;100.00;78062.69;5041933;28;20052;-66
2023/01/20 02:38:23;;;;;;;28.53;11.93;;;;;;;-142.75;100.00;78060.72;5020098;28;20104;-67
2023/01/20 02:41:03;;;;;;;26.27;12.40;;;;;;;-142.75;100.00;78060.72;5004500;28;20112;-65
2023/01/20 02:43:45;;;;;;;27.03;12.53;;;;;;;-142.75;100.00;78066.63;5021937;28;20025;-65
2023/01/20 02:46:19;;;;;;;23.97;12.07;;;;;;;-142.75;100.00;78076.47;5004030;28;20025;-66
2023/01/20 02:49:03;;;;;;;28.13;11.43;;;;;;;-142.75;100.00;78070.56;5021017;28;20083;-64
2023/01/20 02:51:37;;;;;;;33.57;12.53;;;;;;;-142.75;100.00;78072.53;5003593;28;20632;-65
2023/01/20 02:54:07;;;;;;;24.57;11.93;;;;;;;-142.75;100.00;78074.50;5021548;28;20549;-66
2023/01/20 02:56:33;;;;;;;25.20;12.17;;;;;;;-142.75;100.00;78076.47;5021050;28;20029;-66
2023/01/20 02:59:05;;;;;;;23.70;12.33;;;;;;;-142.75;100.00;78080.41;5003521;28;20093;-65
2023/01/20 03:01:44;;;;;;;32.90;13.70;;;;;;;-142.75;100.00;78066.63;5021373;28;20360;-65
2023/01/20 03:04:16;;;;;;;21.87;11.93;;;;;;;-142.75;100.00;78050.84;5003535;28;20025;-66
2023/01/20 03:06:49;;;;;;;30.43;12.87;;;;;;;-142.75;100.00;78042.97;5020896;28;20029;-66
2023/01/20 03:09:20;;;;;;;26.23;13.03;;;;;;;-142.75;100.00;78050.84;5022078;28;20588;-66
2023/01/20 03:12:00;;;;;;;30.60;12.73;;;;;;;-142.75;100.00;78033.13;5021458;28;20034;-66
2023/01/20 03:14:26;;;;;;;33.43;13.83;;;;;;;-142.75;100.00;78046.91;5021275;28;20029;-66
2023/01/20 03:16:51;;;;;;;24.30;12.00;;;;;;;-142.75;100.00;78044.94;5020613;28;20493;-66
2023/01/20 03:19:18;;;;;;;29.17;13.20;;;;;;;-142.75;100.00;78050.84;5021026;28;20058;-65
2023/01/20 03:21:43;;;;;;;28.00;13.03;;;;;;;-142.75;100.00;78052.81;5021052;28;20017;-66
2023/01/20 03:24:09;;;;;;;29.00;14.27;;;;;;;-142.75;100.00;78042.97;5003203;28;20025;-67
2023/01/20 03:26:35;;;;;;;26.77;13.57;;;;;;;-142.75;100.00;78041.00;5020525;28;20029;-66
2023/01/20 03:29:06;;;;;;;31.67;14.35;;;;;;;-142.75;100.00;78035.09;5020196;28;20112;-65
2023/01/20 03:31:34;;;;;;;33.07;13.97;;;;;;;-142.75;100.00;78042.97;5002868;28;20125;-67
2023/01/20 03:34:02;;;;;;;31.13;13.73;;;;;;;-142.75;100.00;78052.81;5020799;28;20025;-67
2023/01/20 03:36:30;;;;;;;30.67;13.90;;;;;;;-142.75;100.00;78058.72;5020716;28;20033;-65
2023/01/20 03:38:57;;;;;;;34.00;15.33;;;;;;;-142.75;100.00;78054.81;5002822;28;20858;-64
2023/01/20 03:41:44;;;;;;;33.90;14.43;;;;;;;-142.75;100.00;78068.59;5019283;28;20022;-66
2023/01/20 03:44:31;;;;;;;34.00;14.43;;;;;;;-142.75;100.00;78046.91;5020762;28;20110;-65
2023/01/20 03:47:08;;;;;;;35.63;16.77;;;;;;;-142.75;100.00;78046.91;5019264;28;20451;-64
2023/01/20 03:49:43;;;;;;;45.13;16.73;;;;;;;-142.75;100.00;78058.72;5020584;28;20037;-66
2023/01/20 03:52:22;;;;;;;40.10;17.60;;;;;;;-142.75;100.00;78054.81;5019995;28;20091;-65
2023/01/20 03:54:57;;;;;;;43.07;16.90;;;;;;;-142.75;100.00;78042.97;5020961;28;20364;-67
2023/01/20 03:57:34;;;;;;;29.90;12.73;;;;;;;-142.75;100.00;78042.97;5019720;28;20029;-65
2023/01/20 04:00:01;;;;;;;42.13;16.20;;;;;;;-142.75;100.00;78054.81;5020305;28;20025;-66
2023/01/20 04:02:27;;;;;;;39.87;16.93;;;;;;;-142.75;100.00;78070.56;5020068;28;20025;-66
2023/01/20 04:04:54;;;;;;;46.63;17.88;;;;;;;-142.75;100.00;78066.63;5020399;28;20040;-67
2023/01/20 04:07:22;;;;;;;40.10;17.93;;;;;;;-142.75;100.00;78052.81;5001864;28;20087;-65
2023/01/20 04:09:53;;;;;;;42.53;18.07;;;;;;;-142.75;100.00;78046.91;5021017;28;20066;-66
2023/01/20 04:12:18;;;;;;;45.87;19.47;;;;;;;-142.75;100.00;78074.50;5019713;28;20052;-66
2023/01/20 04:14:44;;;;;;;38.35;17.70;;;;;;;-142.75;100.00;78070.56;5020123;28;20828;-65
2023/01/20 04:17:09;;;;;;;45.58;20.02;;;;;;;-142.75;100.00;78096.16;5019345;28;20057;-65
2023/01/20 04:19:34;;;;;;;48.63;19.45;;;;;;;-142.75;100.00;78094.19;5019996;28;20037;-66
2023/01/20 04:22:15;;;;;;;53.58;21.30;;;;;;;-142.75;100.00;78082.38;5001803;28;20545;-65
2023/01/20 04:24:47;;;;;;;47.47;19.63;;;;;;;-142.75;100.00;78088.28;5019772;28;20095;-66
2023/01/20 04:27:12;;;;;;;54.83;20.83;;;;;;;-142.75;100.00;78107.97;5001495;28;20017;-66
2023/01/20 04:29:40;;;;;;;44.33;19.42;;;;;;;-142.75;100.00;78094.19;5019927;28;20033;-66
2023/01/20 04:32:06;;;;;;;53.70;20.13;;;;;;;-142.75;100.00;78107.97;5019200;28;20744;-65
2023/01/20 04:34:31;;;;;;;56.78;20.88;;;;;;;-142.75;100.00;78109.94;5019769;28;20021;-66
2023/01/20 04:36:56;;;;;;;58.35;21.17;;;;;;;-142.75;100.00;78107.97;5001252;28;20812;-63
2023/01/20 04:39:22;;;;;;;52.88;19.67;;;;;;;-142.75;100.00;78090.25;5019530;28;20061;-65
2023/01/20 04:41:47;;;;;;;55.03;19.95;;;;;;;-142.75;100.00;78094.19;5019601;28;20032;-65
2023/01/20 04:44:12;;;;;;;56.22;22.23;;;;;;;-142.75;100.00;78094.19;5019922;28;20029;-66
2023/01/20 04:46:38;;;;;;;59.80;22.60;;;;;;;-142.75;100.00;78107.97;5018488;28;20033;-65
2023/01/20 04:49:03;;;;;;;59.85;22.20;;;;;;;-142.75;100.00;78113.88;5019327;28;20032;-65
2023/01/20 04:51:31;;;;;;;66.45;22.23;;;;;;;-142.75;100.00;78117.81;5019137;28;20043;-66
2023/01/20 04:53:57;;;;;;;61.60;22.10;;;;;;;-142.75;100.00;78106.00;5001612;28;20324;-64
2023/01/20 04:56:23;;;;;;;64.60;22.53;;;;;;;-142.75;100.00;78090.25;5019296;28;20055;-64
2023/01/20 04:58:48;;;;;;;60.38;23.33;;;;;;;-142.75;100.00;78106.00;5019066;28;20021;-66
2023/01/20 05:01:13;;;;;;;57.95;21.20;;;;;;;-142.75;100.00;78106.00;5019164;28;20048;-65
2023/01/20 05:03:39;;;;;;;64.85;22.92;;;;;;;-142.75;100.00;78096.16;5001643;28;20117;-66
2023/01/20 05:06:05;;;;;;;59.72;22.15;;;;;;;-142.75;100.00;78090.25;5019076;28;20080;-66
2023/01/20 05:08:30;;;;;;;65.33;23.50;;;;;;;-142.75;100.00;78100.09;5018521;28;20056;-66
2023/01/20 05:10:56;;;;;;;58.60;22.83;;;;;;;-142.75;100.00;78078.44;5019098;28;20100;-64
2023/01/20 05:13:21;;;;;;;59.50;23.10;;;;;;;-142.75;100.00;78072.53;5018883;28;20056;-64
2023/01/20 05:15:47;;;;;;;61.40;22.92;;;;;;;-142.75;100.00;78088.28;5001594;28;20090;-66
2023/01/20 05:18:12;;;;;;;57.38;21.92;;;;;;;-142.75;100.00;78082.38;5000694;28;20021;-65
2023/01/20 05:20:37;;;;;;;55.63;22.05;;;;;;;-142.75;100.00;78066.63;5018967;28;20052;-67
2023/01/20 05:23:03;;;;;;;54.13;23.13;;;;;;;-142.75;100.00;78092.22;5001440;28;20029;-65
2023/01/20 05:25:28;;;;;;;61.10;22.90;;;;;;;-142.75;100.00;78082.38;5018810;28;20025;-65
2023/01/20 05:27:54;;;;;;;57.35;20.50;;;;;;;-142.75;100.00;78066.63;5001051;28;20043;-65
2023/01/20 05:30:19;;;;;;;49.28;20.88;;;;;;;-142.75;100.00;78064.66;5001453;28;20026;-66
2023/01/20 05:32:45;;;;;;;50.10;19.95;;;;;;;-142.75;100.00;78052.81;5018440;28;20029;-67
2023/01/20 05:35:10;;;;;;;49.15;20.00;;;;;;;-142.75;100.00;78048.88;5018631;28;20486;-66
2023/01/20 05:37:36;;;;;;;53.58;21.00;;;;;;;-142.75;100.00;78052.81;5018073;28;20382;-65
2023/01/20 05:40:01;;;;;;;53.95;20.02;;;;;;;-142.75;100.00;78076.47;5018597;28;20116;-66
2023/01/20 05:42:26;;;;;;;53.75;21.73;;;;;;;-142.75;100.00;78082.38;5000960;28;20032;-65
2023/01/20 05:44:52;;;;;;;48.53;19.52;;;;;;;-142.75;100.00;78094.19;5019154;28;20025;-66
2023/01/20 05:47:17;;;;;;;54.00;19.98;;;;;;;-142.75;100.00;78102.06;5017668;28;20045;-67
2023/01/20 05:49:43;;;;;;;51.03;19.15;;;;;;;-142.75;100.00;78096.16;5019177;28;20029;-66
2023/01/20 05:52:08;;;;;;;51.08;19.35;;;;;;;-142.75;100.00;78113.88;5001236;28;20059;-66
2023/01/20 05:54:33;;;;;;;46.47;17.65;;;;;;;-142.75;100.00;78145.38;5037288;28;20040;-66
2023/01/20 05:56:59;;;;;;;44.42;18.15;;;;;;;-142.75;100.00;78133.56;5037354;28;20078;-66
2023/01/20 05:59:24;;;;;;;44.42;18.95;;;;;;;-142.75;100.00;78139.47;5038650;28;20820;-65
2023/01/20 06:01:49;;;;;;;41.85;17.52;;;;;;;-142.75;100.00;78145.38;5038740;28;20029;-66
2023/01/20 06:04:15;;;;;;;39.03;18.02;;;;;;;-142.75;100.00;78157.19;5040254;28;20114;-66
2023/01/20 06:06:40;;;;;;;41.10;17.55;;;;;;;-142.75;100.00;78147.34;5041590;28;20029;-66
2023/01/20 06:09:06;;;;;;;46.13;18.27;;;;;;;-142.75;100.00;78149.31;5042279;28;20072;-65
2023/01/20 06:11:31;;;;;;;42.90;17.45;;;;;;;-142.75;100.00;78149.31;5024050;28;20025;-66
2023/01/20 06:13:57;;;;;;;43.90;17.00;;;;;;;-142.75;100.00;78141.44;5042096;28;20025;-63
2023/01/20 06:16:22;;;;;;;41.35;16.98;;;;;;;-142.75;100.00;78125.69;5042190;28;20190;-65
2023/01/20 06:18:47;;;;;;;46.92;16.98;;;;;;;-142.75;100.00;78111.91;5041630;28;20398;-66
2023/01/20 06:21:13;;;;;;;43.45;16.88;;;;;;;-142.75;100.00;78125.69;5041889;28;20445;-64
2023/01/20 06:23:38;;;;;;;36.58;16.30;;;;;;;-142.75;100.00;78151.28;5024144;28;20766;-66
2023/01/20 06:26:06;;;;;;;43.30;17.38;;;;;;;-142.75;100.00;78137.50;5041799;28;20029;-65
2023/01/20 06:28:32;;;;;;;41.53;16.50;;;;;;;-142.75;100.00;78143.41;5041546;28;20443;-65
2023/01/20 06:31:17;;;;;;;43.47;17.83;;;;;;;-142.75;100.00;78131.59;5042117;28;20029;-63
2023/01/20 06:33:43;;;;;;;43.13;17.03;;;;;;;-142.75;100.00;78135.53;5041340;28;20071;-64
2023/01/20 06:36:12;;;;;;;37.88;15.18;;;;;;;-142.75;100.00;78139.47;5023905;28;20025;-66
2023/01/20 06:38:38;;;;;;;47.23;16.97;;;;;;;-142.75;100.00;78167.03;5040706;28;20064;-66
2023/01/20 06:41:06;;;;;;;34.83;15.43;;;;;;;-142.75;100.00;78149.31;5023661;28;20028;-63
2023/01/20 06:43:33;;;;;;;33.60;13.87;;;;;;;-142.75;100.00;78188.72;5041832;28;20029;-66
2023/01/20 06:46:00;;;;;;;38.50;15.87;;;;;;;-142.75;100.00;78159.16;5041461;28;20024;-63
2023/01/20 06:48:25;;;;;;;35.67;14.93;;;;;;;-142.75;100.00;78155.22;5040846;28;20732;-65
2023/01/20 06:50:50;;;;;;;33.63;14.65;;;;;;;-142.75;100.00;78159.16;5041926;28;20021;-64
2023/01/20 06:53:16;;;;;;;31.05;13.43;;;;;;;-142.75;100.00;78161.13;5023580;28;20423;-66
2023/01/20 06:55:41;;;;;;;30.90;14.30;;;;;;;-142.75;100.00;78153.25;5041372;28;20569;-64
2023/01/20 06:58:06;;;;;;;32.70;14.35;;;;;;;-142.75;100.00;78155.22;5022443;28;20073;-64
2023/01/20 07:00:32;;;;;;;28.67;13.13;;;;;;;-142.75;100.00;78176.88;5023493;28;20475;-65
2023/01/20 07:02:57;;;;;;;28.73;13.02;;;;;;;-142.75;100.00;78161.13;5040924;28;20742;-63
2023/01/20 07:05:22;;;;;;;34.20;14.57;;;;;;;-142.75;100.00;78176.88;5041241;28;20627;-66
2023/01/20 07:07:47;;;;;;;29.15;13.70;;;;;;;-142.75;100.00;78167.03;5040602;28;20053;-66
2023/01/20 07:10:13;;;;;;;31.85;14.27;;;;;;;-142.75;100.00;78176.88;5022957;28;20021;-64
2023/01/20 07:12:38;;;;;;;29.83;14.02;;;;;;;-142.75;100.00;78161.13;5033558;28;20033;-67
2023/01/20 07:15:04;;;;;;;28.10;14.73;;;;;;;-142.75;100.00;78149.31;5020866;28;20024;-66
2023/01/20 07:17:29;;;;;;;33.00;15.38;;;;;;;-142.75;100.00;78165.06;5020573;28;20031;-67
2023/01/20 07:19:55;;;;;;;32.53;15.88;;;;;;;-142.75;100.00;78170.97;5021316;28;20534;-66
2023/01/20 07:22:20;;;;;;;30.80;15.07;;;;;;;-142.75;100.00;78155.22;5003384;28;20100;-66
2023/01/20 07:24:45;;;;;;;28.77;14.40;;;;;;;-142.75;100.00;78161.13;5021314;28;20035;-67
2023/01/20 07:27:11;;;;;;;31.20;15.18;;;;;;;-142.75;100.00;78163.09;5020260;28;20112;-65
2023/01/20 07:29:36;;;;;;;29.13;13.68;;;;;;;-142.75;100.00;78163.09;5021253;28;20021;-67
2023/01/20 07:32:02;;;;;;;33.25;15.95;;;;;;;-142.75;100.00;78155.22;5020685;28;20025;-66
2023/01/20 07:34:28;;;;;;;30.90;16.50;;;;;;;-142.75;100.00;78141.44;5027519;28;20040;-67
2023/01/20 07:36:53;;;;;;;27.50;15.43;;;;;;;-142.75;100.00;78145.38;5022286;28;20036;-66
2023/01/20 07:39:19;;;;;;;31.67;16.35;;;;;;;-142.75;100.00;78155.22;5040375;28;20064;-67
2023/01/20 07:41:47;;;;;;;33.78;16.73;;;;;;;-142.75;100.00;78145.38;5022764;28;20041;-66
2023/01/20 07:44:13;;;;;;;32.43;16.80;;;;;;;-142.75;100.00;78145.38;5040651;28;20029;-66
2023/01/20 07:46:38;;;;;;;33.58;16.48;;;;;;;-142.75;100.00;78157.19;5021965;28;20024;-66
2023/01/20 07:49:04;;;;;;;34.58;17.70;;;;;;;-142.75;100.00;78157.19;5040262;28;20068;-67
2023/01/20 07:51:29;;;;;;;34.65;16.42;;;;;;;-142.75;100.00;78129.63;5007151;28;20036;-66
2023/01/20 07:53:54;;;;;;;39.95;18.27;;;;;;;-142.75;100.00;78141.44;5003122;28;20094;-65
2023/01/20 07:56:26;;;;;;;36.88;17.90;;;;;;;-142.75;100.00;78147.34;5002540;28;20489;-66
2023/01/20 07:58:53;;;;;;;33.23;17.47;;;;;;;-142.75;100.00;78143.41;5020065;28;20255;-66
2023/01/20 08:01:29;;;;;;;45.27;19.53;;;;;;;-142.75;100.00;78151.28;5002291;28;20021;-66
2023/01/20 08:03:55;;;;;;;41.40;20.03;;;;;;;-142.75;100.00;78145.38;5002885;28;20056;-66
2023/01/20 08:06:21;;;;;;;;;;;;;;;-142.75;100.00;78133.56;5020498;28;20037;-64
2023/01/20 08:08:47;;;;;;;31.60;15.33;;;;;;;-142.75;100.00;78135.53;5019686;28;19920;-66
2023/01/20 08:11:13;;;;;;;;;;;;;;;-142.75;100.00;78129.63;5020375;28;20052;-66
2023/01/20 08:13:39;;;;;;;40.60;17.63;;;;;;;-142.75;100.00;78141.44;5020023;28;19960;-67
2023/01/20 08:16:07;;;;;;;38.83;19.75;;;;;;;-142.75;100.00;78157.19;5020102;28;20541;-66
2023/01/20 08:18:34;;;;;;;35.37;17.63;;;;;;;-142.75;100.00;78161.13;5019011;28;20017;-66
2023/01/20 08:21:00;;;;;;;36.70;18.47;;;;;;;-142.75;100.00;78139.47;5002191;28;20475;-66
2023/01/20 08:23:26;;;;;;;38.53;18.77;;;;;;;-142.75;100.00;78141.44;5020204;28;20021;-67
2023/01/20 08:26:00;;;;;;;45.63;21.08;;;;;;;-142.75;100.00;78153.25;5019807;28;20021;-66
2023/01/20 08:28:27;;;;;;;43.03;19.80;;;;;;;-142.75;100.00;78147.34;5018862;28;20071;-66
2023/01/20 08:30:52;;;;;;;39.17;18.10;;;;;;;-142.75;100.00;78147.34;5002305;28;20057;-64
2023/01/20 08:33:18;;;;;;;36.47;17.98;;;;;;;-142.75;100.00;78172.94;5019437;28;20140;-66
2023/01/20 08:35:44;;;;;;;37.42;16.90;;;;;;;-142.75;100.00;78172.94;5019786;28;20036;-66
2023/01/20 08:38:09;;;;;;;34.95;16.58;;;;;;;-142.75;100.00;78161.13;5018932;28;20029;-64
2023/01/20 08:40:34;;;;;;;32.83;16.80;;;;;;;-142.75;100.00;78174.91;5002033;28;20034;-66
2023/01/20 08:43:01;;;;;;;36.88;17.60;;;;;;;-142.75;100.00;78192.66;5001744;28;20056;-66
2023/01/20 08:45:26;;;;;;;34.80;17.67;;;;;;;-142.75;100.00;78180.81;5019564;28;20029;-67
2023/01/20 08:47:51;;;;;;;39.15;17.88;;;;;;;-142.75;100.00;78163.09;5019014;28;20036;-66
2023/01/20 08:50:17;;;;;;;34.03;16.98;;;;;;;-142.75;100.00;78169.00;5019358;28;20117;-65
2023/01/20 08:52:43;;;;;;;35.10;18.05;;;;;;;-142.75;100.00;78182.81;5019339;28;20025;-66
2023/01/20 08:55:09;;;;;;;32.72;16.58;;;;;;;-142.75;100.00;78198.56;5019466;28;20048;-65
2023/01/20 08:57:35;;;;;;;33.77;17.43;;;;;;;-142.75;100.00;78204.47;5018781;28;20029;-67
2023/01/20 09:00:00;;;;;;;32.90;16.73;;;;;;;-142.75;100.00;78208.41;5001359;28;20041;-67
2023/01/20 09:02:26;;;;;;;36.33;17.38;;;;;;;-142.75;100.00;78208.41;5019429;28;20108;-66
2023/01/20 09:04:51;;;;;;;34.22;16.90;;;;;;;-142.75;100.00;78196.59;5019429;28;20021;-66
2023/01/20 09:07:18;;;;;;;38.90;20.17;;;;;;;-142.75;100.00;78202.50;5018412;28;20079;-66
2023/01/20 09:09:44;;;;;;;36.17;18.97;;;;;;;-142.75;100.00;78210.38;5030222;28;20028;-66
2023/01/20 09:12:10;;;;;;;34.88;17.05;;;;;;;-142.75;100.00;78196.59;5038805;28;20119;-66
2023/01/20 09:14:35;;;;;;;36.83;18.25;;;;;;;-142.75;100.00;78208.41;5038558;28;20460;-66
2023/01/20 09:17:01;;;;;;;30.33;15.90;;;;;;;-142.75;100.00;78208.41;5038174;28;20083;-66
2023/01/20 09:19:27;;;;;;;41.13;23.47;;;;;;;-142.75;100.00;78208.41;5038841;28;20087;-67
2023/01/20 09:21:53;;;;;;;;;;;;;;;-142.75;100.00;78204.47;5039574;28;20029;-67
2023/01/20 09:24:18;;;;;;;31.80;15.23;;;;;;;-142.75;100.00;78196.59;5038672;28;20452;-66
2023/01/20 09:26:44;;;;;;;33.88;16.55;;;;;;;-142.75;100.00;78196.59;5038015;28;20885;-67
2023/01/20 09:29:14;;;;;;;37.63;17.35;;;;;;;-142.75;100.00;78212.34;5020926;28;20384;-64
2023/01/20 09:31:51;;;;;;;33.60;16.63;;;;;;;-142.75;100.00;78220.22;5038982;28;20419;-66
2023/01/20 09:34:22;;;;;;;32.13;16.30;;;;;;;-142.75;100.00;78202.50;5038526;28;20812;-64
2023/01/20 09:36:53;;;;;;;31.10;16.27;;;;;;;-142.75;100.00;78188.72;5038209;28;20021;-65
2023/01/20 09:45:30;;;;;;;29.60;15.98;;;;;;;-142.75;100.00;78178.84;5042949;28;20820;-63
2023/01/20 09:54:05;;;;;;;32.27;17.40;;;;;;;-142.75;100.00;78192.66;5043360;28;20414;-66
2023/01/20 09:56:38;;;;;;;35.30;17.27;;;;;;;-142.75;100.00;78194.63;5022352;28;20029;-64
2023/01/20 09:59:19;;;;;;;31.53;16.53;;;;;;;-142.75;100.00;78196.59;5022889;28;20430;-66
2023/01/20 10:01:48;;;;;;;33.43;17.67;;;;;;;-142.75;100.00;78206.44;5022448;28;20029;-65
2023/01/20 10:04:20;;;;;;;38.73;18.37;;;;;;;-142.75;100.00;78192.66;5023021;28;20029;-65
2023/01/20 10:07:16;;;;;;;38.97;19.30;;;;;;;-142.75;100.00;78182.81;5022172;28;20025;-66
2023/01/20 10:09:48;;;;;;;37.83;18.70;;;;;;;-142.75;100.00;78172.94;4984116;28;20050;-63
2023/01/20 10:12:28;;;;;;;36.17;16.90;;;;;;;-142.75;100.00;78155.22;4997544;28;20287;-63
2023/01/20 10:14:59;;;;;;;31.73;16.10;;;;;;;-142.75;100.00;78137.50;5011480;28;20083;-66
2023/01/20 10:17:34;;;;;;;33.67;17.67;;;;;;;-142.75;100.00;78145.38;5021788;28;20033;-65
2023/01/20 10:20:06;;;;;;;39.53;17.93;;;;;;;-142.75;100.00;78159.16;5022299;28;20025;-65
2023/01/20 10:22:50;;;;;;;37.87;17.03;;;;;;;-142.75;100.00;78149.31;5004804;28;20025;-66
2023/01/20 10:25:30;;;;;;;33.00;15.97;;;;;;;-142.75;100.00;78137.50;5004682;28;20121;-65
2023/01/20 10:28:04;;;;;;;30.27;15.97;;;;;;;-142.75;100.00;78143.41;5021707;28;20041;-62
2023/01/20 10:30:33;;;;;;;32.33;14.93;;;;;;;-142.75;100.00;78141.44;5022391;28;20052;-66
2023/01/20 10:33:08;;;;;;;27.03;13.70;;;;;;;-142.75;100.00;78117.81;5022057;28;20083;-66
2023/01/20 10:35:46;;;;;;;29.30;15.60;;;;;;;-142.75;100.00;78100.09;5004381;28;20025;-65
2023/01/20 10:38:42;;;;;;;31.23;15.27;;;;;;;-142.75;100.00;78098.13;5021149;28;20076;-65
2023/01/20 10:41:19;;;;;;;28.20;14.40;;;;;;;-142.75;100.00;78086.31;5004259;28;20022;-64
2023/01/20 10:43:46;;;;;;;28.30;14.50;;;;;;;-142.75;100.00;78082.38;5022120;28;20033;-65
2023/01/20 10:46:42;;;;;;;28.13;14.90;;;;;;;-142.75;100.00;78082.38;5004268;28;20029;-66
2023/01/20 10:49:39;;;;;;;27.87;14.77;;;;;;;-142.75;100.00;78078.44;5021188;28;20052;-66
2023/01/20 10:52:16;;;;;;;28.90;13.73;;;;;;;-142.75;100.00;78066.63;5021493;28;20022;-65
2023/01/20 10:54:53;;;;;;;30.33;13.33;;;;;;;-142.75;100.00;78058.72;5004214;28;20083;-66
2023/01/20 10:57:18;;;;;;;30.67;13.50;;;;;;;-142.75;100.00;78060.72;5021046;28;20025;-66
2023/01/20 10:59:49;;;;;;;28.40;13.95;;;;;;;-142.75;100.00;78060.72;5021850;28;20596;-66
2023/01/20 11:02:24;;;;;;;27.40;14.17;;;;;;;-142.75;100.00;78039.03;5021735;28;20445;-66
2023/01/20 11:05:01;;;;;;;28.38;14.95;;;;;;;-142.75;100.00;78046.91;5022000;28;20014;-65
2023/01/20 11:07:30;;;;;;;24.80;13.97;;;;;;;-142.75;100.00;78035.09;5020887;28;20693;-66
2023/01/20 11:09:55;;;;;;;24.43;13.40;;;;;;;-142.75;100.00;78039.03;5021852;28;20120;-63
2023/01/20 11:12:24;;;;;;;28.92;14.13;;;;;;;-142.75;100.00;78048.88;5021207;28;20029;-63
2023/01/20 11:14:52;;;;;;;27.57;13.10;;;;;;;-142.75;100.00;78050.84;5021787;28;20021;-66